sensor_id;sensor_type;location;lat;lon;timestamp;temperature;humidity
13198;DHT22;6664;52.514;13.440;2023-04-03T00:02:15;0.70;23.00
13198;DHT22;6664;52.514;13.440;2023-04-03T00:05:00;0.60;23.10
13198;DHT22;6664;52.514;13.440;2023-04-03T00:07:49;0.50;23.00
13198;DHT22;6664;52.514;13.440;2023-04-03T00:10:36;0.50;23.10
13198;DHT22;6664;52.514;13.440;2023-04-03T00:13:26;0.40;23.30
13198;DHT22;6664;52.514;13.440;2023-04-03T00:16:12;0.50;23.40
13198;DHT22;6664;52.514;13.440;2023-04-03T00:18:58;0.30;23.30
13198;DHT22;6664;52.514;13.440;2023-04-03T00:21:45;0.30;23.70
13198;DHT22;6664;52.514;13.440;2023-04-03T00:24:31;0.30;23.90
13198;DHT22;6664;52.514;13.440;2023-04-03T00:27:16;0.30;23.70
13198;DHT22;6664;52.514;13.440;2023-04-03T00:30:05;0.20;23.80
13198;DHT22;6664;52.514;13.440;2023-04-03T00:32:51;0.20;23.90
13198;DHT22;6664;52.514;13.440;2023-04-03T00:35:37;0.20;24.10
13198;DHT22;6664;52.514;13.440;2023-04-03T00:38:23;0.30;23.90
13198;DHT22;6664;52.514;13.440;2023-04-03T00:41:09;0.20;24.20
13198;DHT22;6664;52.514;13.440;2023-04-03T00:43:54;0.20;23.90
13198;DHT22;6664;52.514;13.440;2023-04-03T00:46:40;0.10;23.90
13198;DHT22;6664;52.514;13.440;2023-04-03T00:49:26;0.10;23.90
13198;DHT22;6664;52.514;13.440;2023-04-03T00:52:16;0.10;23.90
13198;DHT22;6664;52.514;13.440;2023-04-03T00:55:08;0.00;23.90
13198;DHT22;6664;52.514;13.440;2023-04-03T00:57:59;0.10;23.60
13198;DHT22;6664;52.514;13.440;2023-04-03T01:00:50;0.00;23.60
13198;DHT22;6664;52.514;13.440;2023-04-03T01:03:42;0.00;24.00
13198;DHT22;6664;52.514;13.440;2023-04-03T01:06:34;0.00;23.90
13198;DHT22;6664;52.514;13.440;2023-04-03T01:09:22;0.10;23.80
13198;DHT22;6664;52.514;13.440;2023-04-03T01:12:18;0.00;23.90
13198;DHT22;6664;52.514;13.440;2023-04-03T01:17:54;-0.10;24.50
13198;DHT22;6664;52.514;13.440;2023-04-03T01:26:48;-0.30;24.70
13198;DHT22;6664;52.514;13.440;2023-04-03T01:29:38;-0.20;24.80
13198;DHT22;6664;52.514;13.440;2023-04-03T01:32:26;-0.20;24.80
13198;DHT22;6664;52.514;13.440;2023-04-03T01:35:11;-0.30;24.80
13198;DHT22;6664;52.514;13.440;2023-04-03T01:37:57;-0.20;24.80
13198;DHT22;6664;52.514;13.440;2023-04-03T01:40:45;-0.30;24.90
13198;DHT22;6664;52.514;13.440;2023-04-03T01:43:31;-0.30;24.80
13198;DHT22;6664;52.514;13.440;2023-04-03T01:46:17;-0.40;25.30
13198;DHT22;6664;52.514;13.440;2023-04-03T01:49:04;-0.30;25.60
13198;DHT22;6664;52.514;13.440;2023-04-03T01:51:50;-0.30;25.70
13198;DHT22;6664;52.514;13.440;2023-04-03T01:54:35;-0.40;25.90
13198;DHT22;6664;52.514;13.440;2023-04-03T01:57:23;-0.30;26.10
13198;DHT22;6664;52.514;13.440;2023-04-03T02:00:09;-0.30;26.20
13198;DHT22;6664;52.514;13.440;2023-04-03T02:02:55;-0.30;26.00
13198;DHT22;6664;52.514;13.440;2023-04-03T02:05:41;-0.30;26.10
13198;DHT22;6664;52.514;13.440;2023-04-03T02:08:29;-0.30;26.30
13198;DHT22;6664;52.514;13.440;2023-04-03T02:11:17;-0.30;26.30
13198;DHT22;6664;52.514;13.440;2023-04-03T02:14:03;-0.40;26.40
13198;DHT22;6664;52.514;13.440;2023-04-03T02:16:50;-0.40;26.60
13198;DHT22;6664;52.514;13.440;2023-04-03T02:19:35;-0.30;26.70
13198;DHT22;6664;52.514;13.440;2023-04-03T02:22:21;-0.40;26.70
13198;DHT22;6664;52.514;13.440;2023-04-03T02:25:06;-0.40;26.80
13198;DHT22;6664;52.514;13.440;2023-04-03T02:27:52;-0.50;27.10
13198;DHT22;6664;52.514;13.440;2023-04-03T02:30:38;-0.40;27.00
13198;DHT22;6664;52.514;13.440;2023-04-03T02:33:24;-0.40;27.10
13198;DHT22;6664;52.514;13.440;2023-04-03T02:36:10;-0.50;27.00
13198;DHT22;6664;52.514;13.440;2023-04-03T02:38:55;-0.40;27.00
13198;DHT22;6664;52.514;13.440;2023-04-03T02:41:41;-0.40;26.90
13198;DHT22;6664;52.514;13.440;2023-04-03T02:44:26;-0.40;27.10
13198;DHT22;6664;52.514;13.440;2023-04-03T02:47:12;-0.40;27.00
13198;DHT22;6664;52.514;13.440;2023-04-03T02:49:57;-0.40;26.90
13198;DHT22;6664;52.514;13.440;2023-04-03T02:52:43;-0.40;27.00
13198;DHT22;6664;52.514;13.440;2023-04-03T02:55:28;-0.40;27.10
13198;DHT22;6664;52.514;13.440;2023-04-03T02:58:14;-0.40;27.20
13198;DHT22;6664;52.514;13.440;2023-04-03T03:01:01;-0.50;27.30
13198;DHT22;6664;52.514;13.440;2023-04-03T03:03:49;-0.50;27.10
13198;DHT22;6664;52.514;13.440;2023-04-03T03:06:34;-0.50;27.40
13198;DHT22;6664;52.514;13.440;2023-04-03T03:09:20;-0.50;27.50
13198;DHT22;6664;52.514;13.440;2023-04-03T03:12:06;-0.60;27.50
13198;DHT22;6664;52.514;13.440;2023-04-03T03:14:51;-0.50;27.70
13198;DHT22;6664;52.514;13.440;2023-04-03T03:17:39;-0.60;27.60
13198;DHT22;6664;52.514;13.440;2023-04-03T03:20:24;-0.70;28.00
13198;DHT22;6664;52.514;13.440;2023-04-03T03:23:09;-0.60;27.90
13198;DHT22;6664;52.514;13.440;2023-04-03T03:26:00;-0.70;27.80
13198;DHT22;6664;52.514;13.440;2023-04-03T03:28:49;-0.70;28.40
13198;DHT22;6664;52.514;13.440;2023-04-03T03:31:34;-0.70;28.40
13198;DHT22;6664;52.514;13.440;2023-04-03T03:34:21;-0.70;28.30
13198;DHT22;6664;52.514;13.440;2023-04-03T03:37:08;-0.80;28.20
13198;DHT22;6664;52.514;13.440;2023-04-03T03:39:54;-0.80;28.40
13198;DHT22;6664;52.514;13.440;2023-04-03T03:42:40;-0.80;28.50
13198;DHT22;6664;52.514;13.440;2023-04-03T03:45:25;-0.80;28.40
13198;DHT22;6664;52.514;13.440;2023-04-03T03:48:11;-0.90;28.50
13198;DHT22;6664;52.514;13.440;2023-04-03T03:50:59;-0.90;28.50
13198;DHT22;6664;52.514;13.440;2023-04-03T03:53:47;-0.80;28.70
13198;DHT22;6664;52.514;13.440;2023-04-03T03:56:33;-0.90;28.60
13198;DHT22;6664;52.514;13.440;2023-04-03T03:59:21;-0.90;28.80
13198;DHT22;6664;52.514;13.440;2023-04-03T04:02:07;-1.00;28.70
13198;DHT22;6664;52.514;13.440;2023-04-03T04:04:52;-0.90;29.00
13198;DHT22;6664;52.514;13.440;2023-04-03T04:07:38;-1.00;29.10
13198;DHT22;6664;52.514;13.440;2023-04-03T04:10:26;-0.90;29.00
13198;DHT22;6664;52.514;13.440;2023-04-03T04:13:11;-1.00;29.80
13198;DHT22;6664;52.514;13.440;2023-04-03T04:16:00;-1.00;29.30
13198;DHT22;6664;52.514;13.440;2023-04-03T04:18:45;-1.00;29.40
13198;DHT22;6664;52.514;13.440;2023-04-03T04:21:31;-1.00;29.50
13198;DHT22;6664;52.514;13.440;2023-04-03T04:24:17;-1.10;29.60
13198;DHT22;6664;52.514;13.440;2023-04-03T04:27:02;-1.10;29.90
13198;DHT22;6664;52.514;13.440;2023-04-03T04:29:48;-1.10;29.90
13198;DHT22;6664;52.514;13.440;2023-04-03T04:32:33;-1.10;30.10
13198;DHT22;6664;52.514;13.440;2023-04-03T04:35:19;-1.00;30.10
13198;DHT22;6664;52.514;13.440;2023-04-03T04:38:05;-1.00;30.20
13198;DHT22;6664;52.514;13.440;2023-04-03T04:40:52;-1.10;30.20
13198;DHT22;6664;52.514;13.440;2023-04-03T04:43:37;-1.10;30.20
13198;DHT22;6664;52.514;13.440;2023-04-03T04:46:25;-1.10;30.50
13198;DHT22;6664;52.514;13.440;2023-04-03T04:49:11;-1.20;30.10
13198;DHT22;6664;52.514;13.440;2023-04-03T04:51:59;-1.20;31.00
13198;DHT22;6664;52.514;13.440;2023-04-03T04:54:44;-1.10;30.70
13198;DHT22;6664;52.514;13.440;2023-04-03T04:57:30;-1.10;30.90
13198;DHT22;6664;52.514;13.440;2023-04-03T05:00:16;-1.10;31.10
13198;DHT22;6664;52.514;13.440;2023-04-03T05:03:02;-1.00;31.00
13198;DHT22;6664;52.514;13.440;2023-04-03T05:05:48;-1.00;31.00
13198;DHT22;6664;52.514;13.440;2023-04-03T05:08:33;-0.90;31.30
13198;DHT22;6664;52.514;13.440;2023-04-03T05:11:19;-0.90;31.00
13198;DHT22;6664;52.514;13.440;2023-04-03T05:14:09;-1.10;30.70
13198;DHT22;6664;52.514;13.440;2023-04-03T05:16:55;-1.00;31.60
13198;DHT22;6664;52.514;13.440;2023-04-03T05:19:40;-1.00;31.10
13198;DHT22;6664;52.514;13.440;2023-04-03T05:22:26;-0.90;31.10
13198;DHT22;6664;52.514;13.440;2023-04-03T05:25:12;-0.90;31.20
13198;DHT22;6664;52.514;13.440;2023-04-03T05:27:58;-0.70;31.00
13198;DHT22;6664;52.514;13.440;2023-04-03T05:30:46;-0.80;30.60
13198;DHT22;6664;52.514;13.440;2023-04-03T05:33:37;-0.70;30.70
13198;DHT22;6664;52.514;13.440;2023-04-03T05:36:22;-0.70;30.80
13198;DHT22;6664;52.514;13.440;2023-04-03T05:39:08;-0.60;30.60
13198;DHT22;6664;52.514;13.440;2023-04-03T05:41:54;-0.70;30.40
13198;DHT22;6664;52.514;13.440;2023-04-03T05:44:39;-0.70;30.50
13198;DHT22;6664;52.514;13.440;2023-04-03T05:47:26;-0.60;30.20
13198;DHT22;6664;52.514;13.440;2023-04-03T05:50:11;-0.40;30.10
13198;DHT22;6664;52.514;13.440;2023-04-03T05:52:57;-0.40;29.70
13198;DHT22;6664;52.514;13.440;2023-04-03T05:55:46;-0.30;29.40
13198;DHT22;6664;52.514;13.440;2023-04-03T05:58:31;-0.20;29.10
13198;DHT22;6664;52.514;13.440;2023-04-03T06:01:17;-0.20;29.00
13198;DHT22;6664;52.514;13.440;2023-04-03T06:04:05;-0.20;29.00
13198;DHT22;6664;52.514;13.440;2023-04-03T06:06:56;-0.10;28.80
13198;DHT22;6664;52.514;13.440;2023-04-03T06:09:43;-0.10;28.30
13198;DHT22;6664;52.514;13.440;2023-04-03T06:12:28;0.00;28.30
13198;DHT22;6664;52.514;13.440;2023-04-03T06:15:15;0.00;28.10
13198;DHT22;6664;52.514;13.440;2023-04-03T06:18:02;0.00;28.10
13198;DHT22;6664;52.514;13.440;2023-04-03T06:20:50;0.10;28.10
13198;DHT22;6664;52.514;13.440;2023-04-03T06:23:35;0.10;27.60
13198;DHT22;6664;52.514;13.440;2023-04-03T06:26:21;0.20;27.40
13198;DHT22;6664;52.514;13.440;2023-04-03T06:29:07;0.20;26.80
13198;DHT22;6664;52.514;13.440;2023-04-03T06:31:55;0.40;26.70
13198;DHT22;6664;52.514;13.440;2023-04-03T06:34:43;0.60;25.50
13198;DHT22;6664;52.514;13.440;2023-04-03T06:37:28;0.60;25.30
13198;DHT22;6664;52.514;13.440;2023-04-03T06:40:22;0.60;25.30
13198;DHT22;6664;52.514;13.440;2023-04-03T06:43:07;0.70;25.00
13198;DHT22;6664;52.514;13.440;2023-04-03T06:45:55;0.80;24.60
13198;DHT22;6664;52.514;13.440;2023-04-03T06:48:40;0.90;24.00
13198;DHT22;6664;52.514;13.440;2023-04-03T06:51:28;0.90;23.70
13198;DHT22;6664;52.514;13.440;2023-04-03T06:54:14;0.90;23.40
13198;DHT22;6664;52.514;13.440;2023-04-03T06:57:00;1.00;23.20
13198;DHT22;6664;52.514;13.440;2023-04-03T06:59:46;1.20;22.70
13198;DHT22;6664;52.514;13.440;2023-04-03T07:02:31;1.20;22.10
13198;DHT22;6664;52.514;13.440;2023-04-03T07:05:18;1.30;21.30
13198;DHT22;6664;52.514;13.440;2023-04-03T07:08:03;1.40;19.80
13198;DHT22;6664;52.514;13.440;2023-04-03T07:10:49;1.40;19.70
13198;DHT22;6664;52.514;13.440;2023-04-03T07:13:36;1.50;18.20
13198;DHT22;6664;52.514;13.440;2023-04-03T07:16:21;1.60;18.20
13198;DHT22;6664;52.514;13.440;2023-04-03T07:19:07;1.70;17.40
13198;DHT22;6664;52.514;13.440;2023-04-03T07:21:54;1.80;17.30
13198;DHT22;6664;52.514;13.440;2023-04-03T07:24:40;2.10;16.60
13198;DHT22;6664;52.514;13.440;2023-04-03T07:27:26;2.50;15.80
13198;DHT22;6664;52.514;13.440;2023-04-03T07:30:13;2.90;14.60
13198;DHT22;6664;52.514;13.440;2023-04-03T07:32:59;3.40;13.80
13198;DHT22;6664;52.514;13.440;2023-04-03T07:35:45;3.40;13.30
13198;DHT22;6664;52.514;13.440;2023-04-03T07:38:32;3.40;12.90
13198;DHT22;6664;52.514;13.440;2023-04-03T07:41:19;3.10;13.00
13198;DHT22;6664;52.514;13.440;2023-04-03T07:44:05;3.10;13.00
13198;DHT22;6664;52.514;13.440;2023-04-03T07:46:51;3.00;12.10
13198;DHT22;6664;52.514;13.440;2023-04-03T07:49:36;3.00;12.60
13198;DHT22;6664;52.514;13.440;2023-04-03T07:52:25;3.00;12.00
13198;DHT22;6664;52.514;13.440;2023-04-03T07:55:12;3.10;11.00
13198;DHT22;6664;52.514;13.440;2023-04-03T07:57:58;3.10;10.40
13198;DHT22;6664;52.514;13.440;2023-04-03T08:00:44;3.40;9.60
13198;DHT22;6664;52.514;13.440;2023-04-03T08:03:30;3.50;9.60
13198;DHT22;6664;52.514;13.440;2023-04-03T08:06:15;4.10;9.00
13198;DHT22;6664;52.514;13.440;2023-04-03T08:09:08;4.60;8.30
13198;DHT22;6664;52.514;13.440;2023-04-03T08:11:54;4.80;6.30
13198;DHT22;6664;52.514;13.440;2023-04-03T08:14:39;4.70;6.80
13198;DHT22;6664;52.514;13.440;2023-04-03T08:17:26;5.00;6.70
13198;DHT22;6664;52.514;13.440;2023-04-03T08:20:12;5.30;6.30
13198;DHT22;6664;52.514;13.440;2023-04-03T08:23:01;4.80;5.70
13198;DHT22;6664;52.514;13.440;2023-04-03T08:25:46;5.00;5.80
13198;DHT22;6664;52.514;13.440;2023-04-03T08:28:32;4.80;5.50
13198;DHT22;6664;52.514;13.440;2023-04-03T08:31:18;5.00;5.30
13198;DHT22;6664;52.514;13.440;2023-04-03T08:34:05;4.80;5.40
13198;DHT22;6664;52.514;13.440;2023-04-03T08:36:51;5.20;4.60
13198;DHT22;6664;52.514;13.440;2023-04-03T08:39:37;5.30;4.30
13198;DHT22;6664;52.514;13.440;2023-04-03T08:45:49;5.50;2.80
13198;DHT22;6664;52.514;13.440;2023-04-03T08:48:39;5.50;2.70
13198;DHT22;6664;52.514;13.440;2023-04-03T08:51:28;5.30;3.20
13198;DHT22;6664;52.514;13.440;2023-04-03T08:54:56;5.20;2.90
13198;DHT22;6664;52.514;13.440;2023-04-03T08:57:44;4.70;3.10
13198;DHT22;6664;52.514;13.440;2023-04-03T09:00:56;5.30;3.10
13198;DHT22;6664;52.514;13.440;2023-04-03T09:03:43;5.50;2.40
13198;DHT22;6664;52.514;13.440;2023-04-03T09:06:32;5.70;1.80
13198;DHT22;6664;52.514;13.440;2023-04-03T09:09:39;5.60;1.00
13198;DHT22;6664;52.514;13.440;2023-04-03T09:12:41;5.70;1.00
13198;DHT22;6664;52.514;13.440;2023-04-03T09:15:28;5.90;1.00
13198;DHT22;6664;52.514;13.440;2023-04-03T09:18:30;5.80;1.00
13198;DHT22;6664;52.514;13.440;2023-04-03T09:21:31;5.80;1.00
13198;DHT22;6664;52.514;13.440;2023-04-03T09:24:22;5.90;1.00
13198;DHT22;6664;52.514;13.440;2023-04-03T09:27:11;5.70;1.00
13198;DHT22;6664;52.514;13.440;2023-04-03T09:29:59;5.60;1.00
13198;DHT22;6664;52.514;13.440;2023-04-03T09:32:50;5.90;1.00
13198;DHT22;6664;52.514;13.440;2023-04-03T09:35:37;6.20;1.00
13198;DHT22;6664;52.514;13.440;2023-04-03T09:38:33;6.40;1.00
13198;DHT22;6664;52.514;13.440;2023-04-03T09:41:19;7.00;1.00
13198;DHT22;6664;52.514;13.440;2023-04-03T09:44:21;7.30;1.00
13198;DHT22;6664;52.514;13.440;2023-04-03T09:47:30;7.30;1.00
13198;DHT22;6664;52.514;13.440;2023-04-03T09:50:20;6.90;1.00
13198;DHT22;6664;52.514;13.440;2023-04-03T09:53:11;6.70;1.00
13198;DHT22;6664;52.514;13.440;2023-04-03T10:02:04;6.70;1.00
13198;DHT22;6664;52.514;13.440;2023-04-03T10:05:04;6.90;1.00
13198;DHT22;6664;52.514;13.440;2023-04-03T10:08:33;7.00;1.00
13198;DHT22;6664;52.514;13.440;2023-04-03T10:11:19;6.70;1.00
13198;DHT22;6664;52.514;13.440;2023-04-03T10:14:16;7.10;1.00
13198;DHT22;6664;52.514;13.440;2023-04-03T10:20:26;7.10;1.00
13198;DHT22;6664;52.514;13.440;2023-04-03T10:23:21;7.30;1.00
13198;DHT22;6664;52.514;13.440;2023-04-03T10:26:12;7.70;1.00
13198;DHT22;6664;52.514;13.440;2023-04-03T10:30:27;7.90;1.00
13198;DHT22;6664;52.514;13.440;2023-04-03T10:47:50;7.90;1.00
13198;DHT22;6664;52.514;13.440;2023-04-03T10:54:07;8.20;1.00
13198;DHT22;6664;52.514;13.440;2023-04-03T10:56:58;8.30;1.00
13198;DHT22;6664;52.514;13.440;2023-04-03T10:59:59;9.10;1.00
13198;DHT22;6664;52.514;13.440;2023-04-03T11:02:54;9.00;1.00
13198;DHT22;6664;52.514;13.440;2023-04-03T11:05:47;8.90;1.00
13198;DHT22;6664;52.514;13.440;2023-04-03T11:08:57;8.10;1.00
13198;DHT22;6664;52.514;13.440;2023-04-03T11:11:50;8.50;1.00
13198;DHT22;6664;52.514;13.440;2023-04-03T11:14:40;8.10;1.00
13198;DHT22;6664;52.514;13.440;2023-04-03T11:17:43;8.20;1.00
13198;DHT22;6664;52.514;13.440;2023-04-03T11:20:33;8.50;1.00
13198;DHT22;6664;52.514;13.440;2023-04-03T11:23:25;9.30;1.00
13198;DHT22;6664;52.514;13.440;2023-04-03T11:26:31;9.20;1.00
13198;DHT22;6664;52.514;13.440;2023-04-03T11:29:26;8.70;1.00
13198;DHT22;6664;52.514;13.440;2023-04-03T11:32:49;8.80;1.00
13198;DHT22;6664;52.514;13.440;2023-04-03T11:35:47;8.00;1.00
13198;DHT22;6664;52.514;13.440;2023-04-03T11:38:36;8.10;1.00
13198;DHT22;6664;52.514;13.440;2023-04-03T11:41:31;8.70;1.00
13198;DHT22;6664;52.514;13.440;2023-04-03T11:44:49;8.40;1.00
13198;DHT22;6664;52.514;13.440;2023-04-03T11:47:48;9.10;1.00
13198;DHT22;6664;52.514;13.440;2023-04-03T11:53:37;9.70;1.00
13198;DHT22;6664;52.514;13.440;2023-04-03T12:01:59;7.70;1.00
13198;DHT22;6664;52.514;13.440;2023-04-03T12:08:28;8.10;1.00
13198;DHT22;6664;52.514;13.440;2023-04-03T12:14:30;9.10;1.00
13198;DHT22;6664;52.514;13.440;2023-04-03T12:17:26;8.80;1.00
13198;DHT22;6664;52.514;13.440;2023-04-03T12:24:03;8.30;1.00
13198;DHT22;6664;52.514;13.440;2023-04-03T12:36:17;7.30;1.00
13198;DHT22;6664;52.514;13.440;2023-04-03T12:45:42;8.90;1.00
13198;DHT22;6664;52.514;13.440;2023-04-03T12:48:58;8.80;1.00
13198;DHT22;6664;52.514;13.440;2023-04-03T12:51:47;8.40;1.00
13198;DHT22;6664;52.514;13.440;2023-04-03T12:54:36;8.10;1.00
13198;DHT22;6664;52.514;13.440;2023-04-03T12:57:26;8.20;1.00
13198;DHT22;6664;52.514;13.440;2023-04-03T13:03:25;8.60;1.00
13198;DHT22;6664;52.514;13.440;2023-04-03T13:06:39;8.30;1.00
13198;DHT22;6664;52.514;13.440;2023-04-03T13:09:30;7.90;1.00
13198;DHT22;6664;52.514;13.440;2023-04-03T13:12:16;7.90;1.00
13198;DHT22;6664;52.514;13.440;2023-04-03T13:15:14;8.40;1.00
13198;DHT22;6664;52.514;13.440;2023-04-03T13:18:00;7.80;1.00
13198;DHT22;6664;52.514;13.440;2023-04-03T13:20:48;8.10;1.00
13198;DHT22;6664;52.514;13.440;2023-04-03T13:23:38;8.00;1.00
13198;DHT22;6664;52.514;13.440;2023-04-03T13:26:27;7.50;1.00
13198;DHT22;6664;52.514;13.440;2023-04-03T13:29:29;7.60;1.00
13198;DHT22;6664;52.514;13.440;2023-04-03T13:32:22;7.90;1.00
13198;DHT22;6664;52.514;13.440;2023-04-03T13:35:39;8.60;1.00
13198;DHT22;6664;52.514;13.440;2023-04-03T13:38:29;8.60;1.00
13198;DHT22;6664;52.514;13.440;2023-04-03T13:41:36;8.00;1.00
13198;DHT22;6664;52.514;13.440;2023-04-03T13:53:02;7.20;1.00
13198;DHT22;6664;52.514;13.440;2023-04-03T13:59:00;7.50;1.00
13198;DHT22;6664;52.514;13.440;2023-04-03T14:05:09;7.20;1.00
13198;DHT22;6664;52.514;13.440;2023-04-03T14:07:48;7.40;1.00
13198;DHT22;6664;52.514;13.440;2023-04-03T14:10:34;7.90;1.00
13198;DHT22;6664;52.514;13.440;2023-04-03T14:13:24;8.40;1.00
13198;DHT22;6664;52.514;13.440;2023-04-03T14:16:21;8.60;1.00
13198;DHT22;6664;52.514;13.440;2023-04-03T14:19:18;8.30;1.00
13198;DHT22;6664;52.514;13.440;2023-04-03T14:22:25;8.10;1.00
13198;DHT22;6664;52.514;13.440;2023-04-03T14:25:10;8.50;1.00
13198;DHT22;6664;52.514;13.440;2023-04-03T14:27:56;8.00;1.00
13198;DHT22;6664;52.514;13.440;2023-04-03T14:30:46;7.90;1.00
13198;DHT22;6664;52.514;13.440;2023-04-03T14:33:34;12.90;1.00
13198;DHT22;6664;52.514;13.440;2023-04-03T14:36:23;15.70;1.00
13198;DHT22;6664;52.514;13.440;2023-04-03T14:39:18;13.20;1.00
13198;DHT22;6664;52.514;13.440;2023-04-03T14:42:03;11.90;1.00
13198;DHT22;6664;52.514;13.440;2023-04-03T14:44:49;11.10;1.00
13198;DHT22;6664;52.514;13.440;2023-04-03T14:47:52;9.60;1.00
13198;DHT22;6664;52.514;13.440;2023-04-03T14:50:41;9.00;1.00
13198;DHT22;6664;52.514;13.440;2023-04-03T14:53:40;8.40;1.00
13198;DHT22;6664;52.514;13.440;2023-04-03T14:56:27;7.40;1.00
13198;DHT22;6664;52.514;13.440;2023-04-03T14:59:14;6.70;1.00
13198;DHT22;6664;52.514;13.440;2023-04-03T15:02:00;7.00;1.00
13198;DHT22;6664;52.514;13.440;2023-04-03T15:04:46;6.40;1.00
13198;DHT22;6664;52.514;13.440;2023-04-03T15:07:34;6.00;1.00
13198;DHT22;6664;52.514;13.440;2023-04-03T15:10:23;6.20;1.00
13198;DHT22;6664;52.514;13.440;2023-04-03T15:13:11;6.10;1.10
13198;DHT22;6664;52.514;13.440;2023-04-03T15:15:57;6.00;1.90
13198;DHT22;6664;52.514;13.440;2023-04-03T15:18:46;5.90;2.00
13198;DHT22;6664;52.514;13.440;2023-04-03T15:21:33;5.60;2.70
13198;DHT22;6664;52.514;13.440;2023-04-03T15:24:18;5.60;3.20
13198;DHT22;6664;52.514;13.440;2023-04-03T15:27:04;5.70;3.20
13198;DHT22;6664;52.514;13.440;2023-04-03T15:29:49;5.70;3.40
13198;DHT22;6664;52.514;13.440;2023-04-03T15:32:35;5.40;4.00
13198;DHT22;6664;52.514;13.440;2023-04-03T15:35:21;5.40;4.50
13198;DHT22;6664;52.514;13.440;2023-04-03T15:38:06;5.30;5.60
13198;DHT22;6664;52.514;13.440;2023-04-03T15:40:51;5.20;5.20
13198;DHT22;6664;52.514;13.440;2023-04-03T15:43:37;5.20;5.40
13198;DHT22;6664;52.514;13.440;2023-04-03T15:46:22;5.30;4.90
13198;DHT22;6664;52.514;13.440;2023-04-03T15:49:08;5.30;4.90
13198;DHT22;6664;52.514;13.440;2023-04-03T15:51:53;5.40;4.80
13198;DHT22;6664;52.514;13.440;2023-04-03T15:54:39;5.30;4.40
13198;DHT22;6664;52.514;13.440;2023-04-03T15:57:24;5.30;4.30
13198;DHT22;6664;52.514;13.440;2023-04-03T16:00:14;5.20;4.60
13198;DHT22;6664;52.514;13.440;2023-04-03T16:03:15;5.00;4.80
13198;DHT22;6664;52.514;13.440;2023-04-03T16:06:01;4.70;5.70
13198;DHT22;6664;52.514;13.440;2023-04-03T16:08:47;4.50;5.70
13198;DHT22;6664;52.514;13.440;2023-04-03T16:11:34;4.70;5.70
13198;DHT22;6664;52.514;13.440;2023-04-03T16:14:20;6.00;5.60
13198;DHT22;6664;52.514;13.440;2023-04-03T16:17:06;8.20;1.00
13198;DHT22;6664;52.514;13.440;2023-04-03T16:19:55;10.40;1.00
13198;DHT22;6664;52.514;13.440;2023-04-03T16:22:41;9.80;1.00
13198;DHT22;6664;52.514;13.440;2023-04-03T16:25:27;10.10;1.00
13198;DHT22;6664;52.514;13.440;2023-04-03T16:28:17;10.60;1.00
13198;DHT22;6664;52.514;13.440;2023-04-03T16:31:03;9.40;1.00
13198;DHT22;6664;52.514;13.440;2023-04-03T16:33:52;8.50;1.00
13198;DHT22;6664;52.514;13.440;2023-04-03T16:36:40;7.90;1.00
13198;DHT22;6664;52.514;13.440;2023-04-03T16:39:26;7.50;1.00
13198;DHT22;6664;52.514;13.440;2023-04-03T16:42:12;6.70;1.00
13198;DHT22;6664;52.514;13.440;2023-04-03T16:44:57;6.30;1.00
13198;DHT22;6664;52.514;13.440;2023-04-03T16:47:46;6.30;1.70
13198;DHT22;6664;52.514;13.440;2023-04-03T16:50:34;5.70;2.90
13198;DHT22;6664;52.514;13.440;2023-04-03T16:53:21;5.50;3.70
13198;DHT22;6664;52.514;13.440;2023-04-03T16:56:06;5.40;4.20
13198;DHT22;6664;52.514;13.440;2023-04-03T16:58:54;5.30;4.80
13198;DHT22;6664;52.514;13.440;2023-04-03T17:01:41;5.30;4.70
13198;DHT22;6664;52.514;13.440;2023-04-03T17:04:26;5.20;5.30
13198;DHT22;6664;52.514;13.440;2023-04-03T17:07:12;5.10;6.00
13198;DHT22;6664;52.514;13.440;2023-04-03T17:09:58;5.00;6.00
13198;DHT22;6664;52.514;13.440;2023-04-03T17:12:43;4.80;6.00
13198;DHT22;6664;52.514;13.440;2023-04-03T17:15:29;4.70;6.50
13198;DHT22;6664;52.514;13.440;2023-04-03T17:18:15;4.70;6.70
13198;DHT22;6664;52.514;13.440;2023-04-03T17:21:03;4.70;6.90
13198;DHT22;6664;52.514;13.440;2023-04-03T17:23:54;4.70;7.20
13198;DHT22;6664;52.514;13.440;2023-04-03T17:26:42;4.60;7.50
13198;DHT22;6664;52.514;13.440;2023-04-03T17:29:28;4.50;7.90
13198;DHT22;6664;52.514;13.440;2023-04-03T17:32:15;4.60;8.00
13198;DHT22;6664;52.514;13.440;2023-04-03T17:35:01;4.60;8.20
13198;DHT22;6664;52.514;13.440;2023-04-03T17:37:49;4.50;8.20
13198;DHT22;6664;52.514;13.440;2023-04-03T17:40:35;4.50;8.40
13198;DHT22;6664;52.514;13.440;2023-04-03T17:43:20;4.50;8.60
13198;DHT22;6664;52.514;13.440;2023-04-03T17:46:08;4.50;8.70
13198;DHT22;6664;52.514;13.440;2023-04-03T17:48:54;4.40;9.00
13198;DHT22;6664;52.514;13.440;2023-04-03T17:51:41;4.40;9.20
13198;DHT22;6664;52.514;13.440;2023-04-03T17:54:29;4.40;9.30
13198;DHT22;6664;52.514;13.440;2023-04-03T17:57:15;4.30;9.70
13198;DHT22;6664;52.514;13.440;2023-04-03T18:00:00;4.30;9.80
13198;DHT22;6664;52.514;13.440;2023-04-03T18:02:46;4.20;10.00
13198;DHT22;6664;52.514;13.440;2023-04-03T18:05:32;4.20;10.10
13198;DHT22;6664;52.514;13.440;2023-04-03T18:08:18;4.30;10.00
13198;DHT22;6664;52.514;13.440;2023-04-03T18:11:03;4.10;10.10
13198;DHT22;6664;52.514;13.440;2023-04-03T18:13:54;4.20;10.10
13198;DHT22;6664;52.514;13.440;2023-04-03T18:16:43;4.20;10.10
13198;DHT22;6664;52.514;13.440;2023-04-03T18:19:29;4.10;10.10
13198;DHT22;6664;52.514;13.440;2023-04-03T18:22:16;4.00;10.00
13198;DHT22;6664;52.514;13.440;2023-04-03T18:25:05;3.90;10.50
13198;DHT22;6664;52.514;13.440;2023-04-03T18:27:50;3.90;10.50
13198;DHT22;6664;52.514;13.440;2023-04-03T18:30:40;3.80;10.90
13198;DHT22;6664;52.514;13.440;2023-04-03T18:33:27;3.80;11.00
13198;DHT22;6664;52.514;13.440;2023-04-03T18:36:12;3.70;11.60
13198;DHT22;6664;52.514;13.440;2023-04-03T18:38:58;3.60;11.90
13198;DHT22;6664;52.514;13.440;2023-04-03T18:41:46;3.50;12.20
13198;DHT22;6664;52.514;13.440;2023-04-03T18:44:32;3.50;13.00
13198;DHT22;6664;52.514;13.440;2023-04-03T18:47:18;3.40;12.60
13198;DHT22;6664;52.514;13.440;2023-04-03T18:50:04;3.40;12.90
13198;DHT22;6664;52.514;13.440;2023-04-03T18:52:51;3.30;13.20
13198;DHT22;6664;52.514;13.440;2023-04-03T18:55:36;3.30;13.40
13198;DHT22;6664;52.514;13.440;2023-04-03T18:58:21;3.30;13.50
13198;DHT22;6664;52.514;13.440;2023-04-03T19:01:10;3.30;13.60
13198;DHT22;6664;52.514;13.440;2023-04-03T19:03:56;3.30;13.70
13198;DHT22;6664;52.514;13.440;2023-04-03T19:06:41;3.30;14.00
13198;DHT22;6664;52.514;13.440;2023-04-03T19:09:27;3.30;14.00
13198;DHT22;6664;52.514;13.440;2023-04-03T19:12:13;3.40;14.10
13198;DHT22;6664;52.514;13.440;2023-04-03T19:14:59;3.40;14.10
13198;DHT22;6664;52.514;13.440;2023-04-03T19:17:45;3.40;14.10
13198;DHT22;6664;52.514;13.440;2023-04-03T19:20:31;3.50;14.20
13198;DHT22;6664;52.514;13.440;2023-04-03T19:23:17;3.50;14.60
13198;DHT22;6664;52.514;13.440;2023-04-03T19:26:05;3.50;14.60
13198;DHT22;6664;52.514;13.440;2023-04-03T19:28:51;3.50;14.90
13198;DHT22;6664;52.514;13.440;2023-04-03T19:31:37;3.40;15.10
13198;DHT22;6664;52.514;13.440;2023-04-03T19:34:23;3.40;15.50
13198;DHT22;6664;52.514;13.440;2023-04-03T19:37:09;3.40;15.50
13198;DHT22;6664;52.514;13.440;2023-04-03T19:39:56;3.40;15.80
13198;DHT22;6664;52.514;13.440;2023-04-03T19:42:41;3.40;15.90